Time;durP1;ratioP1;P1;durP2;ratioP2;P2;SDS_P1;SDS_P2;PMS_P1;PMS_P2;Temp;Humidity;BMP_temperature;BMP_pressure;BME280_temperature;BME280_humidity;BME280_pressure;Samples;Min_cycle;Max_cycle;Signal;HPM_P1;HPM_P2
2022/04/12 00:00:32;;;;;;;45.80;23.73;;;;;;;;;;5016892;28;20233;-60
2022/04/12 00:03:04;;;;;;;40.43;24.07;;;;;;;;;;5016987;28;20217;-61
2022/04/12 00:05:39;;;;;;;42.07;23.47;;;;;;;;;;5017063;28;20632;-60
2022/04/12 00:08:06;;;;;;;60.27;27.57;;;;;;;;;;5016981;28;20237;-60
2022/04/12 00:10:35;;;;;;;57.70;25.77;;;;;;;;;;5016811;28;20258;-60
2022/04/12 00:13:02;;;;;;;52.60;25.30;;;;;;;;;;5016921;28;20304;-60
2022/04/12 00:15:30;;;;;;;42.00;22.93;;;;;;;;;;5016926;28;20594;-60
2022/04/12 00:20:43;;;;;;;43.83;21.87;;;;;;;;;;5016847;28;20580;-60
2022/04/12 00:23:12;;;;;;;55.10;27.43;;;;;;;;;;5016741;28;20271;-60
2022/04/12 00:25:42;;;;;;;61.93;27.23;;;;;;;;;;5016379;28;20280;-60
2022/04/12 00:28:10;;;;;;;43.83;22.83;;;;;;;;;;5016403;28;20277;-60
2022/04/12 00:30:38;;;;;;;40.87;22.70;;;;;;;;;;5015881;28;20340;-60
2022/04/12 00:33:05;;;;;;;40.43;22.40;;;;;;;;;;5015806;28;20225;-61
2022/04/12 00:35:33;;;;;;;42.07;23.43;;;;;;;;;;5016566;28;20209;-60
2022/04/12 00:38:00;;;;;;;37.53;22.57;;;;;;;;;;5016444;28;20288;-60
2022/04/12 00:40:27;;;;;;;40.87;23.23;;;;;;;;;;5016070;28;20695;-60
2022/04/12 00:42:55;;;;;;;63.07;30.70;;;;;;;;;;5016402;28;20214;-60
2022/04/12 00:45:22;;;;;;;57.77;27.47;;;;;;;;;;5016355;28;20289;-61
2022/04/12 00:47:49;;;;;;;61.63;28.03;;;;;;;;;;5016013;28;20226;-61
2022/04/12 00:50:16;;;;;;;63.13;28.03;;;;;;;;;;5016213;28;20212;-61
2022/04/12 00:52:52;;;;;;;56.53;27.57;;;;;;;;;;5031469;28;20296;-61
2022/04/12 00:55:19;;;;;;;43.83;24.87;;;;;;;;;;5016660;28;20232;-61
2022/04/12 00:57:47;;;;;;;49.63;25.53;;;;;;;;;;5015824;28;20295;-61
2022/04/12 01:00:16;;;;;;;46.93;25.13;;;;;;;;;;5015823;28;20232;-61
2022/04/12 01:02:43;;;;;;;47.60;25.30;;;;;;;;;;5015839;28;20271;-61
2022/04/12 01:05:11;;;;;;;41.20;23.07;;;;;;;;;;5015747;28;20659;-61
2022/04/12 01:07:38;;;;;;;41.57;22.47;;;;;;;;;;5015643;28;20598;-61
2022/04/12 01:10:05;;;;;;;43.30;23.10;;;;;;;;;;5030222;28;20229;-61
2022/04/12 01:12:38;;;;;;;38.43;22.63;;;;;;;;;;5014128;28;20248;-61
2022/04/12 01:15:17;;;;;;;38.47;21.57;;;;;;;;;;5014619;28;20675;-61
2022/04/12 01:17:46;;;;;;;35.87;20.83;;;;;;;;;;5014657;28;20605;-61
2022/04/12 01:20:15;;;;;;;38.70;21.33;;;;;;;;;;5015497;28;20691;-60
2022/04/12 01:22:46;;;;;;;35.30;21.00;;;;;;;;;;5015693;28;20213;-61
2022/04/12 01:25:13;;;;;;;44.90;24.63;;;;;;;;;;5015418;28;20240;-61
2022/04/12 01:27:40;;;;;;;69.17;26.97;;;;;;;;;;5015320;28;20216;-61
2022/04/12 01:30:08;;;;;;;45.93;22.77;;;;;;;;;;5015492;28;20288;-61
2022/04/12 01:32:35;;;;;;;47.13;24.30;;;;;;;;;;5015338;28;20292;-61
2022/04/12 01:35:02;;;;;;;47.60;24.10;;;;;;;;;;5015175;28;20264;-61
2022/04/12 01:37:30;;;;;;;43.70;22.50;;;;;;;;;;5016003;28;20292;-61
2022/04/12 01:39:57;;;;;;;37.80;20.50;;;;;;;;;;5015703;28;20207;-61
2022/04/12 01:42:24;;;;;;;51.30;25.17;;;;;;;;;;5015190;28;20583;-61
2022/04/12 01:44:51;;;;;;;77.17;38.43;;;;;;;;;;5015014;28;20284;-60
2022/04/12 01:47:18;;;;;;;49.63;25.90;;;;;;;;;;5015687;28;20205;-60
2022/04/12 01:49:45;;;;;;;34.20;21.37;;;;;;;;;;5015317;28;20216;-61
2022/04/12 01:52:15;;;;;;;34.73;20.20;;;;;;;;;;5015750;28;20228;-62
2022/04/12 01:54:42;;;;;;;39.83;21.33;;;;;;;;;;5015002;28;20705;-61
2022/04/12 01:57:09;;;;;;;39.97;21.47;;;;;;;;;;5015290;28;20255;-61
2022/04/12 01:59:37;;;;;;;50.77;25.13;;;;;;;;;;5014889;28;20208;-61
2022/04/12 02:02:04;;;;;;;51.63;25.73;;;;;;;;;;5015051;28;20580;-61
2022/04/12 02:04:31;;;;;;;50.23;24.57;;;;;;;;;;5014983;28;20206;-61
2022/04/12 02:06:58;;;;;;;51.50;25.67;;;;;;;;;;5014658;28;20669;-61
2022/04/12 02:09:26;;;;;;;53.20;25.87;;;;;;;;;;5014807;28;20297;-61
2022/04/12 02:11:56;;;;;;;50.67;25.30;;;;;;;;;;5014926;28;20221;-61
2022/04/12 02:14:24;;;;;;;57.23;26.37;;;;;;;;;;5015746;28;20319;-61
2022/04/12 02:16:51;;;;;;;44.70;23.70;;;;;;;;;;5014842;28;20212;-61
2022/04/12 02:19:18;;;;;;;37.80;21.83;;;;;;;;;;5015029;28;20205;-61
2022/04/12 02:21:45;;;;;;;40.47;22.93;;;;;;;;;;5014916;28;20343;-61
2022/04/12 02:24:12;;;;;;;48.73;24.17;;;;;;;;;;5014993;28;20248;-60
2022/04/12 02:26:39;;;;;;;65.47;32.53;;;;;;;;;;5014697;28;20232;-61
2022/04/12 02:29:07;;;;;;;80.13;32.47;;;;;;;;;;5015300;28;20711;-60
2022/04/12 02:31:34;;;;;;;42.50;22.43;;;;;;;;;;5014862;28;20284;-60
2022/04/12 02:34:01;;;;;;;53.17;25.57;;;;;;;;;;5014594;28;20231;-61
2022/04/12 02:36:29;;;;;;;52.37;25.30;;;;;;;;;;5014858;28;20293;-61
2022/04/12 02:38:56;;;;;;;46.03;23.23;;;;;;;;;;5014760;28;20293;-60
2022/04/12 02:41:23;;;;;;;47.47;24.57;;;;;;;;;;5014615;28;20288;-60
2022/04/12 02:43:50;;;;;;;61.93;25.70;;;;;;;;;;5014738;28;20321;-60
2022/04/12 02:46:17;;;;;;;59.67;28.47;;;;;;;;;;5014482;28;20213;-60
2022/04/12 02:48:44;;;;;;;42.87;25.40;;;;;;;;;;5014595;28;20293;-60
2022/04/12 02:51:11;;;;;;;54.53;26.33;;;;;;;;;;5014703;28;20205;-60
2022/04/12 02:53:39;;;;;;;64.83;28.07;;;;;;;;;;5014334;28;20229;-60
2022/04/12 02:56:07;;;;;;;58.93;24.47;;;;;;;;;;5016162;28;20225;-60
2022/04/12 02:58:34;;;;;;;64.73;28.07;;;;;;;;;;5018134;28;20624;-60
2022/04/12 03:01:01;;;;;;;43.60;24.00;;;;;;;;;;5018118;28;20280;-61
2022/04/12 03:03:29;;;;;;;54.30;25.87;;;;;;;;;;5018539;28;20222;-59
2022/04/12 03:05:56;;;;;;;47.50;24.47;;;;;;;;;;5018020;28;20206;-60
2022/04/12 03:08:23;;;;;;;63.97;33.00;;;;;;;;;;5017693;28;20400;-60
2022/04/12 03:10:50;;;;;;;66.17;29.10;;;;;;;;;;5018061;28;20267;-60
2022/04/12 03:13:17;;;;;;;47.43;25.03;;;;;;;;;;5017615;28;20205;-60
2022/04/12 03:15:44;;;;;;;48.00;26.70;;;;;;;;;;5017563;28;20304;-61
2022/04/12 03:18:11;;;;;;;53.63;26.57;;;;;;;;;;5017587;28;20243;-60
2022/04/12 03:20:38;;;;;;;47.83;24.80;;;;;;;;;;5017693;28;20201;-60
2022/04/12 03:23:06;;;;;;;35.60;23.37;;;;;;;;;;5017341;28;20297;-61
2022/04/12 03:25:33;;;;;;;39.53;23.03;;;;;;;;;;5017339;28;20643;-62
2022/04/12 03:28:00;;;;;;;38.40;22.60;;;;;;;;;;5017461;28;20232;-61
2022/04/12 03:30:27;;;;;;;42.07;25.17;;;;;;;;;;5017561;28;20553;-61
2022/04/12 03:32:55;;;;;;;67.57;29.53;;;;;;;;;;5017247;28;20201;-61
2022/04/12 03:35:22;;;;;;;48.40;25.00;;;;;;;;;;5017355;28;20225;-61
2022/04/12 03:37:50;;;;;;;57.10;28.50;;;;;;;;;;5017392;28;20292;-61
2022/04/12 03:40:18;;;;;;;53.40;25.87;;;;;;;;;;5017348;28;20205;-61
2022/04/12 03:42:45;;;;;;;48.50;24.67;;;;;;;;;;5017049;28;20718;-61
2022/04/12 03:45:12;;;;;;;57.47;28.47;;;;;;;;;;5017262;28;20292;-59
2022/04/12 03:47:39;;;;;;;47.17;25.23;;;;;;;;;;5017039;28;20217;-60
2022/04/12 03:50:07;;;;;;;40.27;24.47;;;;;;;;;;5016889;28;20363;-60
2022/04/12 03:52:34;;;;;;;40.40;25.37;;;;;;;;;;5017099;28;20197;-61
2022/04/12 03:55:01;;;;;;;60.50;27.93;;;;;;;;;;5016940;28;20233;-61
2022/04/12 03:57:28;;;;;;;51.00;26.17;;;;;;;;;;5016891;28;20330;-61
2022/04/12 03:59:55;;;;;;;62.20;28.03;;;;;;;;;;5016028;28;20213;-62
2022/04/12 04:02:22;;;;;;;67.03;29.90;;;;;;;;;;5016645;28;20550;-60
2022/04/12 04:04:49;;;;;;;64.53;27.73;;;;;;;;;;5012904;28;20292;-61
2022/04/12 04:07:16;;;;;;;47.90;25.63;;;;;;;;;;5015328;28;20261;-60
2022/04/12 04:09:44;;;;;;;67.17;33.00;;;;;;;;;;5015777;28;20751;-60
2022/04/12 04:12:11;;;;;;;81.63;36.07;;;;;;;;;;5011385;28;20231;-60
2022/04/12 04:14:39;;;;;;;90.63;34.80;;;;;;;;;;5015444;28;20303;-60
2022/04/12 04:17:07;;;;;;;90.23;34.90;;;;;;;;;;5015156;28;20303;-60
2022/04/12 04:19:34;;;;;;;71.27;30.37;;;;;;;;;;5015669;28;20264;-60
2022/04/12 04:22:02;;;;;;;65.70;29.27;;;;;;;;;;5015986;28;20320;-60
2022/04/12 04:24:34;;;;;;;49.07;27.97;;;;;;;;;;5030184;28;20683;-59
2022/04/12 04:27:05;;;;;;;49.33;26.10;;;;;;;;;;5015099;28;20702;-59
2022/04/12 04:29:33;;;;;;;209.80;90.10;;;;;;;;;;5015564;28;20236;-60
2022/04/12 04:32:00;;;;;;;175.97;76.43;;;;;;;;;;5015675;28;20375;-60
2022/04/12 04:34:27;;;;;;;66.10;32.67;;;;;;;;;;5015267;28;20240;-60
2022/04/12 04:36:54;;;;;;;46.27;26.10;;;;;;;;;;5015509;28;20719;-60
2022/04/12 04:39:21;;;;;;;60.90;26.93;;;;;;;;;;5015425;28;20672;-60
2022/04/12 04:41:48;;;;;;;41.83;24.10;;;;;;;;;;5014750;28;20579;-60
2022/04/12 04:44:17;;;;;;;44.57;25.40;;;;;;;;;;5014911;28;20229;-62
2022/04/12 04:46:44;;;;;;;42.63;23.50;;;;;;;;;;5011173;28;20574;-61
2022/04/12 04:49:11;;;;;;;36.63;22.70;;;;;;;;;;5012364;28;20324;-60
2022/04/12 04:51:41;;;;;;;45.73;26.20;;;;;;;;;;5015141;28;20767;-59
2022/04/12 04:54:08;;;;;;;41.97;24.30;;;;;;;;;;5013335;28;20221;-60
2022/04/12 04:56:35;;;;;;;36.17;23.70;;;;;;;;;;5014167;28;20225;-60
2022/04/12 04:59:02;;;;;;;43.33;24.27;;;;;;;;;;5015456;28;20252;-60
2022/04/12 05:01:29;;;;;;;43.80;26.23;;;;;;;;;;5014568;28;20252;-63
2022/04/12 05:03:57;;;;;;;39.87;26.03;;;;;;;;;;5014230;28;20679;-60
2022/04/12 05:06:24;;;;;;;55.57;31.27;;;;;;;;;;5013422;28;20330;-62
2022/04/12 05:08:51;;;;;;;47.30;27.57;;;;;;;;;;5010420;28;20655;-61
2022/04/12 05:11:18;;;;;;;47.13;24.73;;;;;;;;;;5012082;28;20225;-63
2022/04/12 05:13:45;;;;;;;38.07;24.20;;;;;;;;;;5009901;28;20316;-60
2022/04/12 05:16:13;;;;;;;39.30;25.30;;;;;;;;;;5010888;28;20315;-60
2022/04/12 05:18:40;;;;;;;35.53;23.30;;;;;;;;;;5011686;28;20228;-64
2022/04/12 05:21:07;;;;;;;32.23;21.70;;;;;;;;;;5011704;28;20240;-60
2022/04/12 05:23:35;;;;;;;38.87;22.60;;;;;;;;;;5012054;28;20240;-61
2022/04/12 05:26:02;;;;;;;37.33;22.27;;;;;;;;;;5012530;28;20217;-61
2022/04/12 05:28:29;;;;;;;33.13;21.13;;;;;;;;;;5011829;28;20677;-59
2022/04/12 05:30:56;;;;;;;32.07;20.30;;;;;;;;;;5012374;28;20217;-60
2022/04/12 05:33:24;;;;;;;30.60;19.93;;;;;;;;;;5011677;28;20217;-63
2022/04/12 05:35:51;;;;;;;33.50;20.70;;;;;;;;;;5011897;28;20320;-62
2022/04/12 05:38:18;;;;;;;33.57;20.60;;;;;;;;;;5013826;28;20225;-62
2022/04/12 05:40:51;;;;;;;30.73;20.27;;;;;;;;;;5014127;28;20308;-61
2022/04/12 05:43:19;;;;;;;36.97;21.33;;;;;;;;;;5014362;28;20225;-60
2022/04/12 05:45:47;;;;;;;33.70;20.27;;;;;;;;;;5014380;28;20221;-60
2022/04/12 05:48:13;;;;;;;31.43;20.37;;;;;;;;;;5014464;28;20617;-60
2022/04/12 05:50:41;;;;;;;34.70;20.93;;;;;;;;;;5014476;28;20308;-61
2022/04/12 05:53:08;;;;;;;31.23;19.70;;;;;;;;;;5014211;28;20763;-59
2022/04/12 05:55:35;;;;;;;35.20;19.23;;;;;;;;;;5016085;28;20371;-60
2022/04/12 05:58:05;;;;;;;35.13;20.70;;;;;;;;;;5033815;28;20729;-60
2022/04/12 06:00:34;;;;;;;36.83;19.27;;;;;;;;;;5033820;28;20235;-60
2022/04/12 06:03:06;;;;;;;32.03;19.73;;;;;;;;;;5033932;28;20315;-60
2022/04/12 06:05:33;;;;;;;31.67;18.90;;;;;;;;;;5033740;28;20232;-60
2022/04/12 06:08:01;;;;;;;31.20;19.23;;;;;;;;;;5033529;28;20327;-60
2022/04/12 06:10:29;;;;;;;31.40;19.07;;;;;;;;;;5033576;28;20323;-59
2022/04/12 06:12:58;;;;;;;28.73;18.90;;;;;;;;;;5033712;28;20263;-60
2022/04/12 06:15:26;;;;;;;29.27;18.47;;;;;;;;;;5033872;28;20233;-59
2022/04/12 06:17:53;;;;;;;29.70;19.03;;;;;;;;;;5033797;28;20349;-59
2022/04/12 06:20:20;;;;;;;31.20;18.30;;;;;;;;;;5033766;28;20248;-60
2022/04/12 06:22:48;;;;;;;28.60;18.60;;;;;;;;;;5033983;28;20232;-60
2022/04/12 06:25:19;;;;;;;29.67;18.00;;;;;;;;;;5033341;28;20235;-59
2022/04/12 06:27:50;;;;;;;25.37;16.87;;;;;;;;;;5033675;28;20224;-60
2022/04/12 06:30:26;;;;;;;28.03;19.17;;;;;;;;;;5034097;28;20604;-60
2022/04/12 06:32:54;;;;;;;27.67;15.37;;;;;;;;;;5038135;28;20297;-59
2022/04/12 06:35:21;;;;;;;32.07;18.83;;;;;;;;;;5037503;28;20248;-58
2022/04/12 06:37:52;;;;;;;27.97;18.60;;;;;;;;;;5037683;28;20571;-60
2022/04/12 06:40:20;;;;;;;27.97;17.03;;;;;;;;;;5037036;28;20229;-61
2022/04/12 06:42:48;;;;;;;29.67;18.97;;;;;;;;;;5037422;28;20311;-60
2022/04/12 06:45:15;;;;;;;31.93;18.73;;;;;;;;;;5037489;28;20286;-58
2022/04/12 06:47:43;;;;;;;28.30;17.10;;;;;;;;;;5037547;28;20255;-58
2022/04/12 06:50:11;;;;;;;30.30;18.67;;;;;;;;;;5037327;28;20756;-60
2022/04/12 06:52:39;;;;;;;27.90;17.53;;;;;;;;;;5037158;28;20244;-60
2022/04/12 06:55:06;;;;;;;23.73;14.77;;;;;;;;;;5036985;28;20243;-60
2022/04/12 06:57:36;;;;;;;38.70;16.37;;;;;;;;;;5036898;28;21928;-60
2022/04/12 07:00:06;;;;;;;28.43;16.77;;;;;;;;;;5037435;28;20263;-60
2022/04/12 07:02:34;;;;;;;23.73;15.23;;;;;;;;;;5037207;28;20220;-59
2022/04/12 07:05:04;;;;;;;26.80;14.50;;;;;;;;;;5036871;28;20732;-60
2022/04/12 07:07:32;;;;;;;29.57;14.70;;;;;;;;;;5035833;28;20362;-60
2022/04/12 07:09:59;;;;;;;28.77;15.33;;;;;;;;;;5036579;28;20228;-60
2022/04/12 07:12:26;;;;;;;26.37;13.43;;;;;;;;;;5036968;28;20312;-60
2022/04/12 07:14:53;;;;;;;27.03;13.87;;;;;;;;;;5037075;28;20275;-62
2022/04/12 07:17:21;;;;;;;23.83;12.03;;;;;;;;;;5036892;28;20315;-61
2022/04/12 07:19:48;;;;;;;20.00;10.90;;;;;;;;;;5036855;28;20658;-60
2022/04/12 07:22:15;;;;;;;20.43;10.47;;;;;;;;;;5036775;28;20307;-60
2022/04/12 07:24:42;;;;;;;17.97;10.63;;;;;;;;;;5036162;28;20248;-60
2022/04/12 07:27:10;;;;;;;23.27;11.90;;;;;;;;;;5036969;28;20227;-60
2022/04/12 07:29:38;;;;;;;26.03;12.80;;;;;;;;;;5036596;28;20244;-59
2022/04/12 07:32:05;;;;;;;20.33;9.77;;;;;;;;;;5036623;28;20268;-59
2022/04/12 07:34:32;;;;;;;19.10;9.23;;;;;;;;;;5036179;28;20224;-59
2022/04/12 07:37:00;;;;;;;23.57;8.43;;;;;;;;;;5036508;28;20316;-60
2022/04/12 07:39:27;;;;;;;20.03;12.50;;;;;;;;;;5036057;28;20291;-60
2022/04/12 07:41:54;;;;;;;20.43;11.57;;;;;;;;;;5035938;28;20220;-61
2022/04/12 07:44:22;;;;;;;16.93;7.77;;;;;;;;;;5036478;28;20275;-60
2022/04/12 07:46:49;;;;;;;17.57;8.47;;;;;;;;;;5036222;28;20229;-59
2022/04/12 07:49:17;;;;;;;22.60;9.87;;;;;;;;;;5036666;28;20279;-62
2022/04/12 07:51:44;;;;;;;15.43;8.60;;;;;;;;;;5036087;28;20308;-60
2022/04/12 07:54:11;;;;;;;20.43;9.57;;;;;;;;;;5036304;28;20248;-61
2022/04/12 07:56:39;;;;;;;20.60;7.50;;;;;;;;;;5024362;28;20550;-59
2022/04/12 07:59:08;;;;;;;13.97;6.37;;;;;;;;;;5016368;28;20225;-60
2022/04/12 08:01:35;;;;;;;14.37;6.50;;;;;;;;;;5016074;28;20249;-58
2022/04/12 08:04:02;;;;;;;17.77;6.80;;;;;;;;;;5016359;28;20559;-59
2022/04/12 08:06:29;;;;;;;13.07;6.37;;;;;;;;;;5016004;28;20619;-61
2022/04/12 08:08:56;;;;;;;18.90;7.57;;;;;;;;;;5015891;28;20737;-58
2022/04/12 08:11:23;;;;;;;17.80;7.60;;;;;;;;;;5015892;28;20606;-60
2022/04/12 08:13:50;;;;;;;12.20;5.90;;;;;;;;;;5016199;28;20309;-59
2022/04/12 08:16:17;;;;;;;12.43;6.20;;;;;;;;;;5015913;28;20244;-60
2022/04/12 08:18:46;;;;;;;12.07;5.67;;;;;;;;;;5015849;28;20692;-56
2022/04/12 08:21:13;;;;;;;11.07;5.63;;;;;;;;;;5016115;28;20287;-59
2022/04/12 08:23:41;;;;;;;12.67;4.67;;;;;;;;;;5015400;28;20228;-58
2022/04/12 08:26:08;;;;;;;17.17;5.13;;;;;;;;;;5022875;28;20236;-60
2022/04/12 08:28:35;;;;;;;9.37;4.87;;;;;;;;;;5035345;28;20705;-60
2022/04/12 08:31:02;;;;;;;12.43;4.40;;;;;;;;;;5035601;28;20232;-59
2022/04/12 08:33:30;;;;;;;10.30;4.90;;;;;;;;;;5035176;28;20217;-61
2022/04/12 08:35:57;;;;;;;12.43;4.60;;;;;;;;;;5035146;28;20242;-57
2022/04/12 08:38:24;;;;;;;10.30;4.43;;;;;;;;;;5034671;28;20695;-61
2022/04/12 08:40:54;;;;;;;7.73;4.00;;;;;;;;;;5035354;28;20641;-64
2022/04/12 08:43:23;;;;;;;6.13;3.23;;;;;;;;;;5035187;28;20427;-61
2022/04/12 08:45:51;;;;;;;8.20;3.60;;;;;;;;;;5034606;28;20237;-60
2022/04/12 08:48:18;;;;;;;8.73;3.90;;;;;;;;;;4995832;28;20301;-61
2022/04/12 08:50:52;;;;;;;9.10;4.30;;;;;;;;;;4996119;28;20226;-61
2022/04/12 08:53:19;;;;;;;7.63;3.73;;;;;;;;;;4995440;28;20689;-61
2022/04/12 08:55:47;;;;;;;8.83;3.80;;;;;;;;;;5015579;28;20221;-61
2022/04/12 08:58:14;;;;;;;7.53;4.00;;;;;;;;;;5031508;28;20286;-61
2022/04/12 09:00:41;;;;;;;9.80;4.13;;;;;;;;;;5031624;28;20225;-61
2022/04/12 09:03:08;;;;;;;12.30;3.37;;;;;;;;;;5031286;28;20306;-61
2022/04/12 09:05:35;;;;;;;8.60;4.23;;;;;;;;;;5031614;28;20588;-61
2022/04/12 09:08:03;;;;;;;13.30;3.97;;;;;;;;;;5015493;28;20236;-60
2022/04/12 09:10:35;;;;;;;5.97;3.43;;;;;;;;;;5031412;28;20294;-60
2022/04/12 09:13:09;;;;;;;7.87;3.30;;;;;;;;;;5015665;28;20570;-60
2022/04/12 09:15:46;;;;;;;5.53;2.47;;;;;;;;;;5016073;28;20598;-60
2022/04/12 09:18:43;;;;;;;6.20;2.63;;;;;;;;;;5015911;28;20205;-60
2022/04/12 09:21:27;;;;;;;4.10;2.40;;;;;;;;;;5015698;28;20281;-59
2022/04/12 09:23:59;;;;;;;12.13;4.17;;;;;;;;;;5015805;28;20199;-60
2022/04/12 09:26:33;;;;;;;9.27;3.10;;;;;;;;;;5015857;28;20281;-61
2022/04/12 09:29:01;;;;;;;9.77;3.63;;;;;;;;;;5015512;28;20219;-60
2022/04/12 09:31:28;;;;;;;9.40;3.37;;;;;;;;;;5015710;28;20343;-61
2022/04/12 09:33:55;;;;;;;7.67;2.90;;;;;;;;;;5014289;28;20600;-61
2022/04/12 09:36:22;;;;;;;11.20;3.40;;;;;;;;;;5014028;28;20213;-61
2022/04/12 09:38:58;;;;;;;9.23;4.40;;;;;;;;;;5013980;28;20217;-61
2022/04/12 09:41:27;;;;;;;10.60;4.67;;;;;;;;;;5014434;28;20682;-61
2022/04/12 09:44:11;;;;;;;8.83;4.03;;;;;;;;;;5015241;28;20297;-61
2022/04/12 09:46:39;;;;;;;12.00;3.93;;;;;;;;;;5015177;28;20224;-61
2022/04/12 09:49:07;;;;;;;8.05;3.97;;;;;;;;;;5030708;28;20338;-60
2022/04/12 09:51:37;;;;;;;7.43;3.90;;;;;;;;;;5015366;28;20243;-61
2022/04/12 09:54:09;;;;;;;9.73;4.55;;;;;;;;;;5015379;28;20198;-60
2022/04/12 09:56:39;;;;;;;10.77;4.50;;;;;;;;;;5015194;28;20661;-61
2022/04/12 09:59:11;;;;;;;10.13;5.03;;;;;;;;;;5015501;28;20635;-60
2022/04/12 10:01:39;;;;;;;11.63;4.30;;;;;;;;;;5015007;28;20721;-63
2022/04/12 10:04:09;;;;;;;7.73;4.43;;;;;;;;;;5014067;28;20255;-59
2022/04/12 10:06:39;;;;;;;11.63;4.68;;;;;;;;;;5014149;28;20201;-57
2022/04/12 10:09:10;;;;;;;9.90;4.40;;;;;;;;;;5015343;28;20333;-59
2022/04/12 10:11:37;;;;;;;11.93;4.93;;;;;;;;;;5014959;28;20225;-59
2022/04/12 10:14:04;;;;;;;8.10;4.37;;;;;;;;;;5014813;28;20212;-58
2022/04/12 10:16:32;;;;;;;7.03;4.32;;;;;;;;;;5015380;28;20320;-50
2022/04/12 10:19:00;;;;;;;6.78;3.78;;;;;;;;;;5014735;28;20631;-58
2022/04/12 10:21:27;;;;;;;8.90;4.30;;;;;;;;;;5014699;28;20291;-59
2022/04/12 10:23:56;;;;;;;8.18;4.00;;;;;;;;;;5014814;28;20209;-58
2022/04/12 10:26:25;;;;;;;9.30;4.93;;;;;;;;;;5014998;28;20296;-58
2022/04/12 10:29:00;;;;;;;7.93;4.47;;;;;;;;;;5015050;28;20213;-58
2022/04/12 10:31:31;;;;;;;11.17;4.57;;;;;;;;;;5014936;28;20633;-57
2022/04/12 10:34:12;;;;;;;11.60;5.63;;;;;;;;;;5014872;28;20201;-59
2022/04/12 10:36:59;;;;;;;9.30;4.50;;;;;;;;;;5014614;28;20317;-60
2022/04/12 10:39:49;;;;;;;8.93;4.63;;;;;;;;;;5014741;28;20208;-59
2022/04/12 10:42:19;;;;;;;8.30;4.97;;;;;;;;;;5014551;28;20732;-59
2022/04/12 10:44:50;;;;;;;14.23;5.50;;;;;;;;;;5015232;28;20232;-59
2022/04/12 10:47:47;;;;;;;8.75;4.60;;;;;;;;;;5030349;28;20288;-59
2022/04/12 10:50:14;;;;;;;9.27;4.70;;;;;;;;;;5016627;28;20232;-59
2022/04/12 10:52:43;;;;;;;7.77;4.03;;;;;;;;;;5014586;28;20236;-59
2022/04/12 10:55:19;;;;;;;9.68;4.32;;;;;;;;;;5014459;28;20631;-58
2022/04/12 10:57:46;;;;;;;9.20;5.03;;;;;;;;;;5014436;28;20213;-59
2022/04/12 11:00:15;;;;;;;9.63;4.35;;;;;;;;;;5014755;28;20228;-59
2022/04/12 11:03:03;;;;;;;7.13;3.63;;;;;;;;;;5014757;28;20198;-57
2022/04/12 11:05:33;;;;;;;9.15;4.25;;;;;;;;;;5014368;28;20696;-58
2022/04/12 11:08:04;;;;;;;8.40;3.70;;;;;;;;;;5014400;28;20256;-60
2022/04/12 11:10:37;;;;;;;7.30;3.65;;;;;;;;;;5014883;28;20396;-60
2022/04/12 11:13:11;;;;;;;7.75;3.85;;;;;;;;;;5013555;28;20248;-59
2022/04/12 11:15:40;;;;;;;6.53;3.78;;;;;;;;;;5014541;28;20288;-59
2022/04/12 11:18:10;;;;;;;8.82;3.90;;;;;;;;;;5017361;28;20538;-59
2022/04/12 11:20:41;;;;;;;6.00;4.20;;;;;;;;;;5018048;28;20566;-59
2022/04/12 11:23:13;;;;;;;8.50;4.32;;;;;;;;;;5018181;28;20284;-60
2022/04/12 11:25:50;;;;;;;8.32;4.25;;;;;;;;;;5017704;28;20193;-60
2022/04/12 11:28:22;;;;;;;14.13;5.30;;;;;;;;;;5017702;28;20296;-59
2022/04/12 11:30:57;;;;;;;8.00;4.80;;;;;;;;;;5018507;28;20215;-60
2022/04/12 11:33:27;;;;;;;9.20;5.13;;;;;;;;;;5017962;28;20292;-58
2022/04/12 11:35:55;;;;;;;10.27;4.53;;;;;;;;;;5017686;28;20201;-59
2022/04/12 11:38:23;;;;;;;10.68;4.75;;;;;;;;;;5017194;28;20288;-60
2022/04/12 11:40:51;;;;;;;9.07;5.25;;;;;;;;;;5017585;28;20284;-59
2022/04/12 11:43:25;;;;;;;9.13;4.57;;;;;;;;;;5017545;28;20211;-61
2022/04/12 11:45:56;;;;;;;12.35;4.88;;;;;;;;;;5018074;28;20290;-59
2022/04/12 11:48:27;;;;;;;8.75;4.72;;;;;;;;;;5008201;28;20695;-60
2022/04/12 11:50:57;;;;;;;9.95;5.43;;;;;;;;;;5015490;28;20288;-61
2022/04/12 11:53:25;;;;;;;6.70;4.30;;;;;;;;;;5015551;28;20271;-60
2022/04/12 11:56:02;;;;;;;12.07;5.38;;;;;;;;;;5030446;28;20221;-57
2022/04/12 11:58:30;;;;;;;8.05;4.60;;;;;;;;;;5017219;28;20323;-58
2022/04/12 12:00:58;;;;;;;9.75;4.45;;;;;;;;;;5018275;28;20260;-58
2022/04/12 12:03:29;;;;;;;9.25;3.65;;;;;;;;;;5021395;28;20241;-60
2022/04/12 12:05:57;;;;;;;7.05;3.70;;;;;;;;;;5014649;28;20225;-61
2022/04/12 12:08:24;;;;;;;9.80;4.28;;;;;;;;;;5012953;28;20291;-60
2022/04/12 12:10:53;;;;;;;9.32;3.90;;;;;;;;;;5013487;28;20535;-60
2022/04/12 12:13:24;;;;;;;8.95;3.75;;;;;;;;;;5014127;28;20229;-60
2022/04/12 12:15:51;;;;;;;6.32;3.47;;;;;;;;;;5012138;28;20268;-61
2022/04/12 12:18:20;;;;;;;8.45;3.78;;;;;;;;;;5014118;28;20853;-61
2022/04/12 12:20:47;;;;;;;8.82;3.72;;;;;;;;;;5014232;28;20213;-60
2022/04/12 12:23:14;;;;;;;7.68;4.32;;;;;;;;;;5014399;28;20224;-61
2022/04/12 12:25:44;;;;;;;11.13;4.28;;;;;;;;;;5029646;28;20282;-59
2022/04/12 12:28:11;;;;;;;11.07;4.25;;;;;;;;;;5012888;28;20200;-59
2022/04/12 12:30:39;;;;;;;7.00;5.18;;;;;;;;;;5011190;28;20344;-60
2022/04/12 12:33:06;;;;;;;11.50;4.60;;;;;;;;;;5013787;28;20201;-59
2022/04/12 12:35:34;;;;;;;6.70;3.55;;;;;;;;;;5013856;28;20539;-59
2022/04/12 12:38:26;;;;;;;8.73;4.35;;;;;;;;;;5013421;28;20275;-59
2022/04/12 12:40:57;;;;;;;11.43;4.40;;;;;;;;;;5013401;28;20720;-58
2022/04/12 12:43:26;;;;;;;6.63;4.00;;;;;;;;;;5012873;28;20201;-58
2022/04/12 12:45:54;;;;;;;8.55;4.15;;;;;;;;;;5008936;28;20324;-60
2022/04/12 12:48:22;;;;;;;9.15;4.05;;;;;;;;;;5013151;28;20308;-60
2022/04/12 12:50:49;;;;;;;8.15;4.03;;;;;;;;;;5013243;28;20225;-59
2022/04/12 12:53:18;;;;;;;9.23;4.32;;;;;;;;;;5011788;28;20222;-60
2022/04/12 12:55:49;;;;;;;8.00;3.85;;;;;;;;;;5008334;28;20295;-60
2022/04/12 12:58:18;;;;;;;9.25;4.10;;;;;;;;;;5016245;28;20244;-60
2022/04/12 13:00:45;;;;;;;9.18;3.80;;;;;;;;;;5011416;28;20221;-59
2022/04/12 13:03:15;;;;;;;11.43;4.10;;;;;;;;;;5013946;28;20225;-59
2022/04/12 13:06:02;;;;;;;7.32;3.90;;;;;;;;;;5013819;28;20547;-59
2022/04/12 13:08:32;;;;;;;8.38;3.90;;;;;;;;;;5011795;28;20695;-60
2022/04/12 13:11:01;;;;;;;8.48;3.50;;;;;;;;;;5013889;28;20233;-60
2022/04/12 13:13:31;;;;;;;7.80;3.67;;;;;;;;;;5013249;28;20275;-58
2022/04/12 13:16:03;;;;;;;8.00;4.00;;;;;;;;;;5013532;28;20221;-58
2022/04/12 13:18:30;;;;;;;6.50;3.00;;;;;;;;;;5012755;28;20236;-59
2022/04/12 13:20:57;;;;;;;11.18;3.83;;;;;;;;;;5010657;28;20308;-57
2022/04/12 13:23:25;;;;;;;6.93;3.95;;;;;;;;;;5013337;28;20232;-60
2022/04/12 13:25:52;;;;;;;9.25;4.05;;;;;;;;;;5013411;28;20241;-62
2022/04/12 13:28:19;;;;;;;8.65;4.50;;;;;;;;;;5013483;28;20275;-59
2022/04/12 13:30:49;;;;;;;8.73;4.03;;;;;;;;;;5014430;28;20320;-61
2022/04/12 13:33:16;;;;;;;9.38;4.05;;;;;;;;;;5028254;28;20235;-61
2022/04/12 13:35:43;;;;;;;9.65;3.85;;;;;;;;;;5013183;28;20738;-60
2022/04/12 13:38:11;;;;;;;6.75;4.10;;;;;;;;;;5011116;28;20275;-61
2022/04/12 13:40:38;;;;;;;10.40;4.25;;;;;;;;;;5012190;28;20245;-59
2022/04/12 13:43:06;;;;;;;8.00;4.57;;;;;;;;;;5012285;28;20456;-58
2022/04/12 13:45:34;;;;;;;7.90;4.53;;;;;;;;;;5011678;28;20240;-59
2022/04/12 13:48:01;;;;;;;9.23;4.82;;;;;;;;;;4994422;28;20241;-60
2022/04/12 13:50:28;;;;;;;11.00;4.60;;;;;;;;;;5013222;28;20563;-59
2022/04/12 13:52:55;;;;;;;9.73;4.72;;;;;;;;;;5014149;28;20226;-58
2022/04/12 13:55:22;;;;;;;6.72;3.95;;;;;;;;;;5013874;28;20309;-61
2022/04/12 13:57:49;;;;;;;6.63;4.13;;;;;;;;;;5014527;28;20233;-64
2022/04/12 14:00:23;;;;;;;10.20;4.72;;;;;;;;;;5013433;28;20327;-60
2022/04/12 14:02:51;;;;;;;8.40;4.32;;;;;;;;;;5014591;28;20232;-58
2022/04/12 14:05:24;;;;;;;7.35;4.07;;;;;;;;;;5014010;28;20283;-59
2022/04/12 14:07:51;;;;;;;7.32;4.40;;;;;;;;;;5014089;28;20248;-61
2022/04/12 14:10:18;;;;;;;8.30;4.10;;;;;;;;;;5013874;28;20294;-59
2022/04/12 14:12:45;;;;;;;10.27;4.20;;;;;;;;;;5013694;28;20312;-59
2022/04/12 14:15:13;;;;;;;4.47;3.40;;;;;;;;;;5013835;28;20236;-59
2022/04/12 14:17:40;;;;;;;8.05;3.88;;;;;;;;;;5014046;28;20603;-59
2022/04/12 14:20:27;;;;;;;7.13;3.53;;;;;;;;;;5013833;28;20316;-59
2022/04/12 14:22:58;;;;;;;6.97;3.88;;;;;;;;;;5014088;28;20232;-59
2022/04/12 14:25:40;;;;;;;8.15;3.80;;;;;;;;;;5013938;28;20249;-59
2022/04/12 14:28:11;;;;;;;7.60;3.78;;;;;;;;;;5012994;28;20256;-59
2022/04/12 14:30:38;;;;;;;9.20;4.18;;;;;;;;;;5028498;28;20315;-59
2022/04/12 14:33:05;;;;;;;5.47;3.60;;;;;;;;;;5033362;28;20224;-60
2022/04/12 14:35:33;;;;;;;7.85;4.07;;;;;;;;;;5033660;28;20248;-59
2022/04/12 14:38:02;;;;;;;7.82;3.40;;;;;;;;;;5033355;28;20285;-59
2022/04/12 14:40:30;;;;;;;6.35;3.45;;;;;;;;;;5033468;28;20225;-59